sensor_id;sensor_type;location;lat;lon;timestamp;P1;durP1;ratioP1;P2;durP2;ratioP2
20069;SDS011;10195;50.868;4.382;2023-06-10T00:01:47;13.65;;;6.28;;
20069;SDS011;10195;50.868;4.382;2023-06-10T00:04:16;11.88;;;6.55;;
20069;SDS011;10195;50.868;4.382;2023-06-10T00:06:45;17.35;;;7.35;;
20069;SDS011;10195;50.868;4.382;2023-06-10T00:09:14;7.95;;;6.82;;
20069;SDS011;10195;50.868;4.382;2023-06-10T00:11:41;12.60;;;6.63;;
20069;SDS011;10195;50.868;4.382;2023-06-10T00:14:07;7.90;;;7.07;;
20069;SDS011;10195;50.868;4.382;2023-06-10T00:16:32;9.63;;;6.72;;
20069;SDS011;10195;50.868;4.382;2023-06-10T00:18:59;11.85;;;6.68;;
20069;SDS011;10195;50.868;4.382;2023-06-10T00:21:26;9.23;;;6.28;;
20069;SDS011;10195;50.868;4.382;2023-06-10T00:23:52;10.23;;;6.75;;
20069;SDS011;10195;50.868;4.382;2023-06-10T00:26:18;14.05;;;6.70;;
20069;SDS011;10195;50.868;4.382;2023-06-10T00:28:43;9.82;;;6.50;;
20069;SDS011;10195;50.868;4.382;2023-06-10T00:31:10;10.65;;;6.70;;
20069;SDS011;10195;50.868;4.382;2023-06-10T00:33:36;9.88;;;6.43;;
20069;SDS011;10195;50.868;4.382;2023-06-10T00:36:01;7.45;;;6.35;;
20069;SDS011;10195;50.868;4.382;2023-06-10T00:38:27;10.10;;;7.00;;
20069;SDS011;10195;50.868;4.382;2023-06-10T00:40:53;8.15;;;6.07;;
20069;SDS011;10195;50.868;4.382;2023-06-10T00:43:18;15.25;;;6.90;;
20069;SDS011;10195;50.868;4.382;2023-06-10T00:45:44;10.68;;;6.30;;
20069;SDS011;10195;50.868;4.382;2023-06-10T00:48:10;8.60;;;6.82;;
20069;SDS011;10195;50.868;4.382;2023-06-10T00:50:35;7.50;;;6.55;;
20069;SDS011;10195;50.868;4.382;2023-06-10T00:53:04;7.75;;;6.30;;
20069;SDS011;10195;50.868;4.382;2023-06-10T00:55:30;8.77;;;6.80;;
20069;SDS011;10195;50.868;4.382;2023-06-10T00:57:57;14.30;;;6.70;;
20069;SDS011;10195;50.868;4.382;2023-06-10T01:00:23;9.05;;;6.95;;
20069;SDS011;10195;50.868;4.382;2023-06-10T01:02:49;7.78;;;6.38;;
20069;SDS011;10195;50.868;4.382;2023-06-10T01:05:17;7.88;;;6.72;;
20069;SDS011;10195;50.868;4.382;2023-06-10T01:07:56;13.88;;;6.28;;
20069;SDS011;10195;50.868;4.382;2023-06-10T01:13:29;11.15;;;6.50;;
20069;SDS011;10195;50.868;4.382;2023-06-10T01:15:56;8.55;;;6.13;;
20069;SDS011;10195;50.868;4.382;2023-06-10T01:18:23;10.20;;;7.28;;
20069;SDS011;10195;50.868;4.382;2023-06-10T01:20:55;10.95;;;6.85;;
20069;SDS011;10195;50.868;4.382;2023-06-10T01:23:21;11.18;;;6.72;;
20069;SDS011;10195;50.868;4.382;2023-06-10T01:25:49;11.05;;;6.63;;
20069;SDS011;10195;50.868;4.382;2023-06-10T01:33:47;11.75;;;6.57;;
20069;SDS011;10195;50.868;4.382;2023-06-10T01:36:16;11.40;;;6.57;;
20069;SDS011;10195;50.868;4.382;2023-06-10T01:38:44;12.45;;;6.68;;
20069;SDS011;10195;50.868;4.382;2023-06-10T01:41:12;8.80;;;6.65;;
20069;SDS011;10195;50.868;4.382;2023-06-10T01:43:42;9.77;;;7.68;;
20069;SDS011;10195;50.868;4.382;2023-06-10T01:46:08;9.13;;;6.95;;
20069;SDS011;10195;50.868;4.382;2023-06-10T01:48:34;13.40;;;7.20;;
20069;SDS011;10195;50.868;4.382;2023-06-10T01:51:00;10.57;;;6.93;;
20069;SDS011;10195;50.868;4.382;2023-06-10T01:53:26;12.65;;;7.47;;
20069;SDS011;10195;50.868;4.382;2023-06-10T01:55:51;11.52;;;7.03;;
20069;SDS011;10195;50.868;4.382;2023-06-10T01:58:17;8.95;;;7.18;;
20069;SDS011;10195;50.868;4.382;2023-06-10T02:00:42;8.95;;;7.50;;
20069;SDS011;10195;50.868;4.382;2023-06-10T02:03:08;10.50;;;6.70;;
20069;SDS011;10195;50.868;4.382;2023-06-10T02:05:34;11.93;;;7.95;;
20069;SDS011;10195;50.868;4.382;2023-06-10T02:07:59;9.88;;;7.05;;
20069;SDS011;10195;50.868;4.382;2023-06-10T02:10:25;11.32;;;7.30;;
20069;SDS011;10195;50.868;4.382;2023-06-10T02:12:51;9.25;;;6.72;;
20069;SDS011;10195;50.868;4.382;2023-06-10T02:15:17;13.68;;;7.57;;
20069;SDS011;10195;50.868;4.382;2023-06-10T02:17:43;11.02;;;6.97;;
20069;SDS011;10195;50.868;4.382;2023-06-10T02:20:09;10.10;;;7.13;;
20069;SDS011;10195;50.868;4.382;2023-06-10T02:22:36;10.85;;;7.35;;
20069;SDS011;10195;50.868;4.382;2023-06-10T02:25:02;9.18;;;6.80;;
20069;SDS011;10195;50.868;4.382;2023-06-10T02:27:30;9.63;;;7.18;;
20069;SDS011;10195;50.868;4.382;2023-06-10T02:29:59;12.32;;;7.30;;
20069;SDS011;10195;50.868;4.382;2023-06-10T02:32:24;10.50;;;7.28;;
20069;SDS011;10195;50.868;4.382;2023-06-10T02:34:50;9.43;;;7.88;;
20069;SDS011;10195;50.868;4.382;2023-06-10T02:37:16;8.70;;;7.18;;
20069;SDS011;10195;50.868;4.382;2023-06-10T02:39:42;9.77;;;6.90;;
20069;SDS011;10195;50.868;4.382;2023-06-10T02:42:08;10.40;;;8.15;;
20069;SDS011;10195;50.868;4.382;2023-06-10T02:44:35;11.23;;;8.20;;
20069;SDS011;10195;50.868;4.382;2023-06-10T02:47:00;13.50;;;7.50;;
20069;SDS011;10195;50.868;4.382;2023-06-10T02:49:26;9.57;;;7.78;;
20069;SDS011;10195;50.868;4.382;2023-06-10T02:51:53;9.38;;;7.63;;
20069;SDS011;10195;50.868;4.382;2023-06-10T02:54:28;10.88;;;7.88;;
20069;SDS011;10195;50.868;4.382;2023-06-10T02:56:54;9.70;;;7.32;;
20069;SDS011;10195;50.868;4.382;2023-06-10T02:59:21;11.52;;;7.60;;
20069;SDS011;10195;50.868;4.382;2023-06-10T03:01:47;10.85;;;7.55;;
20069;SDS011;10195;50.868;4.382;2023-06-10T03:04:12;11.07;;;8.23;;
20069;SDS011;10195;50.868;4.382;2023-06-10T03:06:41;10.75;;;7.72;;
20069;SDS011;10195;50.868;4.382;2023-06-10T03:09:07;12.15;;;8.40;;
20069;SDS011;10195;50.868;4.382;2023-06-10T03:11:33;11.90;;;7.63;;
20069;SDS011;10195;50.868;4.382;2023-06-10T03:13:58;9.32;;;7.65;;
20069;SDS011;10195;50.868;4.382;2023-06-10T03:16:24;11.15;;;8.25;;
20069;SDS011;10195;50.868;4.382;2023-06-10T03:18:52;14.20;;;7.85;;
20069;SDS011;10195;50.868;4.382;2023-06-10T03:21:18;9.85;;;8.50;;
20069;SDS011;10195;50.868;4.382;2023-06-10T03:23:44;11.15;;;7.85;;
20069;SDS011;10195;50.868;4.382;2023-06-10T03:26:10;9.35;;;8.20;;
20069;SDS011;10195;50.868;4.382;2023-06-10T03:28:39;13.85;;;8.32;;
20069;SDS011;10195;50.868;4.382;2023-06-10T03:31:06;13.18;;;7.90;;
20069;SDS011;10195;50.868;4.382;2023-06-10T03:33:31;13.13;;;8.63;;
20069;SDS011;10195;50.868;4.382;2023-06-10T03:35:57;15.27;;;8.55;;
20069;SDS011;10195;50.868;4.382;2023-06-10T03:38:23;11.88;;;8.13;;
20069;SDS011;10195;50.868;4.382;2023-06-10T03:40:49;13.13;;;8.68;;
20069;SDS011;10195;50.868;4.382;2023-06-10T03:43:15;11.05;;;7.93;;
20069;SDS011;10195;50.868;4.382;2023-06-10T03:45:40;10.85;;;7.75;;
20069;SDS011;10195;50.868;4.382;2023-06-10T03:48:06;12.27;;;7.97;;
20069;SDS011;10195;50.868;4.382;2023-06-10T03:50:33;15.13;;;9.10;;
20069;SDS011;10195;50.868;4.382;2023-06-10T03:52:59;10.18;;;8.65;;
20069;SDS011;10195;50.868;4.382;2023-06-10T03:55:26;13.45;;;8.32;;
20069;SDS011;10195;50.868;4.382;2023-06-10T03:57:52;13.73;;;8.45;;
20069;SDS011;10195;50.868;4.382;2023-06-10T04:00:18;9.02;;;8.13;;
20069;SDS011;10195;50.868;4.382;2023-06-10T04:02:46;13.95;;;8.55;;
20069;SDS011;10195;50.868;4.382;2023-06-10T04:05:14;13.23;;;8.77;;
20069;SDS011;10195;50.868;4.382;2023-06-10T04:07:41;11.43;;;8.52;;
20069;SDS011;10195;50.868;4.382;2023-06-10T04:10:08;12.23;;;8.52;;
20069;SDS011;10195;50.868;4.382;2023-06-10T04:12:34;11.65;;;8.40;;
20069;SDS011;10195;50.868;4.382;2023-06-10T04:15:00;15.48;;;8.38;;
20069;SDS011;10195;50.868;4.382;2023-06-10T04:17:26;13.05;;;8.38;;
20069;SDS011;10195;50.868;4.382;2023-06-10T04:19:52;19.92;;;8.45;;
20069;SDS011;10195;50.868;4.382;2023-06-10T04:22:19;12.85;;;8.13;;
20069;SDS011;10195;50.868;4.382;2023-06-10T04:24:45;14.18;;;8.52;;
20069;SDS011;10195;50.868;4.382;2023-06-10T04:27:11;10.07;;;8.35;;
20069;SDS011;10195;50.868;4.382;2023-06-10T04:29:37;11.35;;;8.23;;
20069;SDS011;10195;50.868;4.382;2023-06-10T04:32:03;14.00;;;8.52;;
20069;SDS011;10195;50.868;4.382;2023-06-10T04:34:30;10.38;;;8.13;;
20069;SDS011;10195;50.868;4.382;2023-06-10T04:36:57;10.60;;;8.77;;
20069;SDS011;10195;50.868;4.382;2023-06-10T04:39:23;16.60;;;8.27;;
20069;SDS011;10195;50.868;4.382;2023-06-10T04:41:49;15.13;;;8.27;;
20069;SDS011;10195;50.868;4.382;2023-06-10T04:44:14;14.23;;;8.60;;
20069;SDS011;10195;50.868;4.382;2023-06-10T04:46:40;13.27;;;8.73;;
20069;SDS011;10195;50.868;4.382;2023-06-10T04:49:06;11.80;;;8.65;;
20069;SDS011;10195;50.868;4.382;2023-06-10T04:51:31;13.55;;;8.48;;
20069;SDS011;10195;50.868;4.382;2023-06-10T04:53:57;11.40;;;8.07;;
20069;SDS011;10195;50.868;4.382;2023-06-10T04:56:23;11.82;;;8.55;;
20069;SDS011;10195;50.868;4.382;2023-06-10T04:58:50;13.73;;;8.48;;
20069;SDS011;10195;50.868;4.382;2023-06-10T05:01:15;17.00;;;9.07;;
20069;SDS011;10195;50.868;4.382;2023-06-10T05:03:41;9.38;;;8.40;;
20069;SDS011;10195;50.868;4.382;2023-06-10T05:06:07;20.80;;;8.52;;
20069;SDS011;10195;50.868;4.382;2023-06-10T05:08:33;11.57;;;8.30;;
20069;SDS011;10195;50.868;4.382;2023-06-10T05:10:58;17.40;;;8.55;;
20069;SDS011;10195;50.868;4.382;2023-06-10T05:13:24;12.27;;;8.65;;
20069;SDS011;10195;50.868;4.382;2023-06-10T05:15:50;14.48;;;8.70;;
20069;SDS011;10195;50.868;4.382;2023-06-10T05:18:15;11.30;;;9.27;;
20069;SDS011;10195;50.868;4.382;2023-06-10T05:20:41;12.65;;;8.35;;
20069;SDS011;10195;50.868;4.382;2023-06-10T05:23:07;20.83;;;8.70;;
20069;SDS011;10195;50.868;4.382;2023-06-10T05:25:33;14.10;;;8.82;;
20069;SDS011;10195;50.868;4.382;2023-06-10T05:27:59;11.18;;;7.97;;
20069;SDS011;10195;50.868;4.382;2023-06-10T05:30:24;13.35;;;8.35;;
20069;SDS011;10195;50.868;4.382;2023-06-10T05:32:51;18.60;;;9.20;;
20069;SDS011;10195;50.868;4.382;2023-06-10T05:35:18;14.20;;;8.48;;
20069;SDS011;10195;50.868;4.382;2023-06-10T05:37:43;13.77;;;8.30;;
20069;SDS011;10195;50.868;4.382;2023-06-10T05:40:10;10.00;;;7.70;;
20069;SDS011;10195;50.868;4.382;2023-06-10T05:42:36;12.05;;;7.93;;
20069;SDS011;10195;50.868;4.382;2023-06-10T05:45:02;16.58;;;7.95;;
20069;SDS011;10195;50.868;4.382;2023-06-10T05:47:28;14.85;;;8.80;;
20069;SDS011;10195;50.868;4.382;2023-06-10T05:49:54;8.93;;;7.75;;
20069;SDS011;10195;50.868;4.382;2023-06-10T05:52:20;11.88;;;8.27;;
20069;SDS011;10195;50.868;4.382;2023-06-10T05:54:46;14.48;;;7.63;;
20069;SDS011;10195;50.868;4.382;2023-06-10T05:57:12;13.13;;;7.65;;
20069;SDS011;10195;50.868;4.382;2023-06-10T05:59:37;10.85;;;7.05;;
20069;SDS011;10195;50.868;4.382;2023-06-10T06:02:03;9.40;;;7.22;;
20069;SDS011;10195;50.868;4.382;2023-06-10T06:04:29;10.02;;;7.30;;
20069;SDS011;10195;50.868;4.382;2023-06-10T06:06:55;11.88;;;7.25;;
20069;SDS011;10195;50.868;4.382;2023-06-10T06:09:21;10.07;;;6.93;;
20069;SDS011;10195;50.868;4.382;2023-06-10T06:11:46;15.30;;;7.45;;
20069;SDS011;10195;50.868;4.382;2023-06-10T06:14:12;11.02;;;7.32;;
20069;SDS011;10195;50.868;4.382;2023-06-10T06:16:38;11.40;;;7.43;;
20069;SDS011;10195;50.868;4.382;2023-06-10T06:19:03;9.30;;;7.50;;
20069;SDS011;10195;50.868;4.382;2023-06-10T06:21:29;10.35;;;7.95;;
20069;SDS011;10195;50.868;4.382;2023-06-10T06:23:55;8.90;;;6.93;;
20069;SDS011;10195;50.868;4.382;2023-06-10T06:26:20;19.33;;;6.60;;
20069;SDS011;10195;50.868;4.382;2023-06-10T06:28:46;12.23;;;7.35;;
20069;SDS011;10195;50.868;4.382;2023-06-10T06:31:12;12.63;;;7.00;;
20069;SDS011;10195;50.868;4.382;2023-06-10T06:33:37;10.93;;;7.28;;
20069;SDS011;10195;50.868;4.382;2023-06-10T06:36:03;10.93;;;7.22;;
20069;SDS011;10195;50.868;4.382;2023-06-10T06:38:29;8.90;;;7.57;;
20069;SDS011;10195;50.868;4.382;2023-06-10T06:40:54;10.82;;;6.88;;
20069;SDS011;10195;50.868;4.382;2023-06-10T06:43:20;14.95;;;7.50;;
20069;SDS011;10195;50.868;4.382;2023-06-10T06:45:46;13.80;;;7.13;;
20069;SDS011;10195;50.868;4.382;2023-06-10T06:48:12;7.70;;;6.75;;
20069;SDS011;10195;50.868;4.382;2023-06-10T06:50:37;11.05;;;7.22;;
20069;SDS011;10195;50.868;4.382;2023-06-10T06:53:03;7.97;;;6.72;;
20069;SDS011;10195;50.868;4.382;2023-06-10T06:55:29;11.23;;;6.95;;
20069;SDS011;10195;50.868;4.382;2023-06-10T06:57:55;9.88;;;7.75;;
20069;SDS011;10195;50.868;4.382;2023-06-10T07:00:21;11.85;;;7.50;;
20069;SDS011;10195;50.868;4.382;2023-06-10T07:02:47;12.35;;;7.35;;
20069;SDS011;10195;50.868;4.382;2023-06-10T07:05:13;14.52;;;6.63;;
20069;SDS011;10195;50.868;4.382;2023-06-10T07:07:39;7.85;;;6.55;;
20069;SDS011;10195;50.868;4.382;2023-06-10T07:10:05;10.57;;;6.43;;
20069;SDS011;10195;50.868;4.382;2023-06-10T07:12:31;12.43;;;7.40;;
20069;SDS011;10195;50.868;4.382;2023-06-10T07:14:56;9.93;;;6.82;;
20069;SDS011;10195;50.868;4.382;2023-06-10T07:17:22;7.97;;;6.28;;
20069;SDS011;10195;50.868;4.382;2023-06-10T07:19:48;11.05;;;6.55;;
20069;SDS011;10195;50.868;4.382;2023-06-10T07:22:13;8.75;;;6.78;;
20069;SDS011;10195;50.868;4.382;2023-06-10T07:24:39;12.93;;;6.68;;
20069;SDS011;10195;50.868;4.382;2023-06-10T07:27:05;8.50;;;6.60;;
20069;SDS011;10195;50.868;4.382;2023-06-10T07:29:32;11.32;;;6.50;;
20069;SDS011;10195;50.868;4.382;2023-06-10T07:31:57;11.35;;;6.90;;
20069;SDS011;10195;50.868;4.382;2023-06-10T07:34:23;8.57;;;6.38;;
20069;SDS011;10195;50.868;4.382;2023-06-10T07:36:49;13.93;;;6.10;;
20069;SDS011;10195;50.868;4.382;2023-06-10T07:39:14;8.75;;;6.55;;
20069;SDS011;10195;50.868;4.382;2023-06-10T07:41:40;10.95;;;6.15;;
20069;SDS011;10195;50.868;4.382;2023-06-10T07:44:06;8.68;;;6.45;;
20069;SDS011;10195;50.868;4.382;2023-06-10T07:46:31;13.45;;;6.30;;
20069;SDS011;10195;50.868;4.382;2023-06-10T07:48:57;8.95;;;6.43;;
20069;SDS011;10195;50.868;4.382;2023-06-10T07:51:23;7.93;;;5.97;;
20069;SDS011;10195;50.868;4.382;2023-06-10T07:53:49;11.48;;;6.40;;
20069;SDS011;10195;50.868;4.382;2023-06-10T07:56:14;9.82;;;6.15;;
20069;SDS011;10195;50.868;4.382;2023-06-10T07:58:40;8.80;;;6.28;;
20069;SDS011;10195;50.868;4.382;2023-06-10T08:01:06;11.85;;;6.22;;
20069;SDS011;10195;50.868;4.382;2023-06-10T08:03:37;7.22;;;6.22;;
20069;SDS011;10195;50.868;4.382;2023-06-10T08:06:03;8.80;;;5.57;;
20069;SDS011;10195;50.868;4.382;2023-06-10T08:08:30;7.55;;;5.63;;
20069;SDS011;10195;50.868;4.382;2023-06-10T08:10:56;7.72;;;5.85;;
20069;SDS011;10195;50.868;4.382;2023-06-10T08:13:22;8.15;;;5.85;;
20069;SDS011;10195;50.868;4.382;2023-06-10T08:15:47;9.70;;;5.80;;
20069;SDS011;10195;50.868;4.382;2023-06-10T08:18:15;8.02;;;6.03;;
20069;SDS011;10195;50.868;4.382;2023-06-10T08:20:41;8.35;;;5.63;;
20069;SDS011;10195;50.868;4.382;2023-06-10T08:23:06;10.57;;;5.72;;
20069;SDS011;10195;50.868;4.382;2023-06-10T08:25:32;8.93;;;5.70;;
20069;SDS011;10195;50.868;4.382;2023-06-10T08:27:58;6.25;;;5.65;;
20069;SDS011;10195;50.868;4.382;2023-06-10T08:30:23;11.05;;;5.93;;
20069;SDS011;10195;50.868;4.382;2023-06-10T08:32:49;9.98;;;5.50;;
20069;SDS011;10195;50.868;4.382;2023-06-10T08:35:16;9.70;;;5.75;;
20069;SDS011;10195;50.868;4.382;2023-06-10T08:37:42;7.22;;;5.63;;
20069;SDS011;10195;50.868;4.382;2023-06-10T08:40:08;9.27;;;6.03;;
20069;SDS011;10195;50.868;4.382;2023-06-10T08:45:12;7.30;;;5.93;;
20069;SDS011;10195;50.868;4.382;2023-06-10T08:47:43;6.40;;;5.57;;
20069;SDS011;10195;50.868;4.382;2023-06-10T08:50:11;7.13;;;5.35;;
20069;SDS011;10195;50.868;4.382;2023-06-10T08:52:37;12.77;;;5.50;;
20069;SDS011;10195;50.868;4.382;2023-06-10T08:55:19;6.57;;;5.65;;
20069;SDS011;10195;50.868;4.382;2023-06-10T08:57:51;8.30;;;5.00;;
20069;SDS011;10195;50.868;4.382;2023-06-10T09:00:17;8.32;;;5.22;;
20069;SDS011;10195;50.868;4.382;2023-06-10T09:02:43;7.72;;;4.82;;
20069;SDS011;10195;50.868;4.382;2023-06-10T09:05:10;11.02;;;5.20;;
20069;SDS011;10195;50.868;4.382;2023-06-10T09:07:36;10.55;;;5.32;;
20069;SDS011;10195;50.868;4.382;2023-06-10T09:10:03;9.00;;;5.57;;
20069;SDS011;10195;50.868;4.382;2023-06-10T09:12:31;7.95;;;4.88;;
20069;SDS011;10195;50.868;4.382;2023-06-10T09:14:59;6.18;;;5.05;;
20069;SDS011;10195;50.868;4.382;2023-06-10T09:17:26;6.47;;;4.75;;
20069;SDS011;10195;50.868;4.382;2023-06-10T09:19:52;7.45;;;5.22;;
20069;SDS011;10195;50.868;4.382;2023-06-10T09:22:20;5.60;;;4.93;;
20069;SDS011;10195;50.868;4.382;2023-06-10T09:24:50;11.27;;;5.53;;
20069;SDS011;10195;50.868;4.382;2023-06-10T09:27:16;7.40;;;4.68;;
20069;SDS011;10195;50.868;4.382;2023-06-10T09:30:00;6.00;;;4.60;;
20069;SDS011;10195;50.868;4.382;2023-06-10T09:32:25;6.28;;;4.68;;
20069;SDS011;10195;50.868;4.382;2023-06-10T09:34:52;7.85;;;4.85;;
20069;SDS011;10195;50.868;4.382;2023-06-10T09:37:21;6.10;;;4.60;;
20069;SDS011;10195;50.868;4.382;2023-06-10T09:40:01;7.55;;;4.80;;
20069;SDS011;10195;50.868;4.382;2023-06-10T09:42:32;7.35;;;4.88;;
20069;SDS011;10195;50.868;4.382;2023-06-10T09:45:00;9.95;;;5.13;;
20069;SDS011;10195;50.868;4.382;2023-06-10T09:47:26;5.95;;;4.60;;
20069;SDS011;10195;50.868;4.382;2023-06-10T09:49:52;6.55;;;5.15;;
20069;SDS011;10195;50.868;4.382;2023-06-10T09:52:25;8.23;;;4.60;;
20069;SDS011;10195;50.868;4.382;2023-06-10T09:54:53;7.95;;;4.40;;
20069;SDS011;10195;50.868;4.382;2023-06-10T09:57:23;6.18;;;4.47;;
20069;SDS011;10195;50.868;4.382;2023-06-10T09:59:52;10.07;;;4.68;;
20069;SDS011;10195;50.868;4.382;2023-06-10T10:02:19;9.13;;;4.85;;
20069;SDS011;10195;50.868;4.382;2023-06-10T10:04:45;7.05;;;4.90;;
20069;SDS011;10195;50.868;4.382;2023-06-10T10:07:11;8.35;;;4.80;;
20069;SDS011;10195;50.868;4.382;2023-06-10T10:09:37;7.47;;;5.50;;
20069;SDS011;10195;50.868;4.382;2023-06-10T10:12:10;6.80;;;4.10;;
20069;SDS011;10195;50.868;4.382;2023-06-10T10:14:37;6.07;;;4.85;;
20069;SDS011;10195;50.868;4.382;2023-06-10T10:17:04;9.98;;;4.90;;
20069;SDS011;10195;50.868;4.382;2023-06-10T10:19:35;7.25;;;4.65;;
20069;SDS011;10195;50.868;4.382;2023-06-10T10:22:08;6.65;;;4.47;;
20069;SDS011;10195;50.868;4.382;2023-06-10T10:24:46;9.55;;;5.00;;
20069;SDS011;10195;50.868;4.382;2023-06-10T10:27:28;6.47;;;4.47;;
20069;SDS011;10195;50.868;4.382;2023-06-10T10:30:00;10.15;;;4.88;;
20069;SDS011;10195;50.868;4.382;2023-06-10T10:32:32;11.38;;;5.15;;
20069;SDS011;10195;50.868;4.382;2023-06-10T10:37:33;7.75;;;5.15;;
20069;SDS011;10195;50.868;4.382;2023-06-10T10:40:00;8.65;;;4.90;;
20069;SDS011;10195;50.868;4.382;2023-06-10T10:42:26;9.32;;;5.05;;
20069;SDS011;10195;50.868;4.382;2023-06-10T10:44:53;8.90;;;4.85;;
20069;SDS011;10195;50.868;4.382;2023-06-10T10:47:21;4.82;;;4.30;;
20069;SDS011;10195;50.868;4.382;2023-06-10T10:49:48;7.18;;;4.85;;
20069;SDS011;10195;50.868;4.382;2023-06-10T10:52:18;8.48;;;4.78;;
20069;SDS011;10195;50.868;4.382;2023-06-10T10:54:45;5.57;;;5.03;;
20069;SDS011;10195;50.868;4.382;2023-06-10T10:57:14;7.57;;;5.05;;
20069;SDS011;10195;50.868;4.382;2023-06-10T10:59:59;7.60;;;4.80;;
20069;SDS011;10195;50.868;4.382;2023-06-10T11:02:40;6.72;;;4.80;;
20069;SDS011;10195;50.868;4.382;2023-06-10T11:05:14;7.35;;;4.40;;
20069;SDS011;10195;50.868;4.382;2023-06-10T11:07:41;6.05;;;4.65;;
20069;SDS011;10195;50.868;4.382;2023-06-10T11:10:17;5.40;;;4.63;;
20069;SDS011;10195;50.868;4.382;2023-06-10T11:12:56;6.40;;;4.40;;
20069;SDS011;10195;50.868;4.382;2023-06-10T11:15:26;6.78;;;5.03;;
20069;SDS011;10195;50.868;4.382;2023-06-10T11:20:44;6.85;;;4.38;;
20069;SDS011;10195;50.868;4.382;2023-06-10T11:31:23;5.80;;;4.50;;
20069;SDS011;10195;50.868;4.382;2023-06-10T11:33:57;10.90;;;5.03;;
20069;SDS011;10195;50.868;4.382;2023-06-10T11:36:28;6.47;;;4.45;;
20069;SDS011;10195;50.868;4.382;2023-06-10T11:39:01;10.55;;;5.15;;
20069;SDS011;10195;50.868;4.382;2023-06-10T11:41:29;8.57;;;5.10;;
20069;SDS011;10195;50.868;4.382;2023-06-10T11:43:56;6.93;;;4.93;;
20069;SDS011;10195;50.868;4.382;2023-06-10T11:46:26;5.10;;;4.28;;
20069;SDS011;10195;50.868;4.382;2023-06-10T11:48:53;5.07;;;4.30;;
20069;SDS011;10195;50.868;4.382;2023-06-10T11:51:20;7.53;;;4.72;;
20069;SDS011;10195;50.868;4.382;2023-06-10T11:53:47;9.75;;;3.97;;
20069;SDS011;10195;50.868;4.382;2023-06-10T11:56:13;7.63;;;4.70;;
20069;SDS011;10195;50.868;4.382;2023-06-10T11:58:44;8.93;;;5.00;;
20069;SDS011;10195;50.868;4.382;2023-06-10T12:01:10;6.07;;;5.47;;
20069;SDS011;10195;50.868;4.382;2023-06-10T12:03:36;5.00;;;4.50;;
20069;SDS011;10195;50.868;4.382;2023-06-10T12:06:04;9.32;;;5.25;;
20069;SDS011;10195;50.868;4.382;2023-06-10T12:08:31;8.57;;;4.63;;
20069;SDS011;10195;50.868;4.382;2023-06-10T12:10:58;8.27;;;5.22;;
20069;SDS011;10195;50.868;4.382;2023-06-10T12:13:25;6.97;;;4.82;;
20069;SDS011;10195;50.868;4.382;2023-06-10T12:15:52;5.43;;;4.88;;
20069;SDS011;10195;50.868;4.382;2023-06-10T12:18:19;9.70;;;5.35;;
20069;SDS011;10195;50.868;4.382;2023-06-10T12:20:45;7.53;;;5.07;;
20069;SDS011;10195;50.868;4.382;2023-06-10T12:23:12;9.82;;;5.05;;
20069;SDS011;10195;50.868;4.382;2023-06-10T12:25:38;7.63;;;4.65;;
20069;SDS011;10195;50.868;4.382;2023-06-10T12:28:04;7.85;;;5.22;;
20069;SDS011;10195;50.868;4.382;2023-06-10T12:30:31;7.07;;;5.35;;
20069;SDS011;10195;50.868;4.382;2023-06-10T12:32:58;8.93;;;5.38;;
20069;SDS011;10195;50.868;4.382;2023-06-10T12:35:24;13.00;;;5.28;;
20069;SDS011;10195;50.868;4.382;2023-06-10T12:38:01;5.80;;;5.20;;
20069;SDS011;10195;50.868;4.382;2023-06-10T12:40:32;8.77;;;5.32;;
20069;SDS011;10195;50.868;4.382;2023-06-10T12:43:07;7.40;;;5.35;;
20069;SDS011;10195;50.868;4.382;2023-06-10T12:45:33;10.07;;;5.00;;
20069;SDS011;10195;50.868;4.382;2023-06-10T12:48:09;7.35;;;5.00;;
20069;SDS011;10195;50.868;4.382;2023-06-10T12:53:18;8.65;;;4.55;;
20069;SDS011;10195;50.868;4.382;2023-06-10T12:55:44;8.80;;;5.35;;
20069;SDS011;10195;50.868;4.382;2023-06-10T12:58:10;6.00;;;4.82;;
20069;SDS011;10195;50.868;4.382;2023-06-10T13:00:37;8.38;;;4.88;;
20069;SDS011;10195;50.868;4.382;2023-06-10T13:03:02;7.50;;;5.00;;
20069;SDS011;10195;50.868;4.382;2023-06-10T13:05:30;7.45;;;4.88;;
20069;SDS011;10195;50.868;4.382;2023-06-10T13:07:57;9.07;;;5.15;;
20069;SDS011;10195;50.868;4.382;2023-06-10T13:10:23;12.30;;;5.63;;
20069;SDS011;10195;50.868;4.382;2023-06-10T13:12:49;10.75;;;4.82;;
20069;SDS011;10195;50.868;4.382;2023-06-10T13:15:15;7.53;;;5.28;;
20069;SDS011;10195;50.868;4.382;2023-06-10T13:17:42;8.05;;;5.15;;
20069;SDS011;10195;50.868;4.382;2023-06-10T13:20:15;6.30;;;5.22;;
20069;SDS011;10195;50.868;4.382;2023-06-10T13:22:42;12.73;;;5.25;;
20069;SDS011;10195;50.868;4.382;2023-06-10T13:25:08;7.82;;;5.07;;
20069;SDS011;10195;50.868;4.382;2023-06-10T13:27:34;8.23;;;5.15;;
20069;SDS011;10195;50.868;4.382;2023-06-10T13:30:03;11.15;;;5.13;;
20069;SDS011;10195;50.868;4.382;2023-06-10T13:32:29;9.10;;;5.00;;
20069;SDS011;10195;50.868;4.382;2023-06-10T13:34:55;12.88;;;5.68;;
20069;SDS011;10195;50.868;4.382;2023-06-10T13:37:22;9.82;;;5.30;;
20069;SDS011;10195;50.868;4.382;2023-06-10T13:39:47;5.20;;;4.68;;
20069;SDS011;10195;50.868;4.382;2023-06-10T13:42:15;7.50;;;5.13;;
20069;SDS011;10195;50.868;4.382;2023-06-10T13:44:41;8.10;;;5.07;;
20069;SDS011;10195;50.868;4.382;2023-06-10T13:47:07;9.73;;;5.15;;
20069;SDS011;10195;50.868;4.382;2023-06-10T13:49:33;9.73;;;5.38;;
20069;SDS011;10195;50.868;4.382;2023-06-10T13:51:58;8.05;;;4.80;;
20069;SDS011;10195;50.868;4.382;2023-06-10T13:54:24;12.80;;;4.82;;
20069;SDS011;10195;50.868;4.382;2023-06-10T13:56:50;7.03;;;4.97;;
20069;SDS011;10195;50.868;4.382;2023-06-10T13:59:15;7.80;;;5.05;;
20069;SDS011;10195;50.868;4.382;2023-06-10T14:01:41;12.90;;;5.25;;
20069;SDS011;10195;50.868;4.382;2023-06-10T14:04:07;9.65;;;5.07;;
20069;SDS011;10195;50.868;4.382;2023-06-10T14:06:33;7.75;;;5.57;;
20069;SDS011;10195;50.868;4.382;2023-06-10T14:08:59;7.55;;;5.05;;
20069;SDS011;10195;50.868;4.382;2023-06-10T14:11:25;14.43;;;5.80;;
20069;SDS011;10195;50.868;4.382;2023-06-10T14:13:51;10.68;;;5.53;;
20069;SDS011;10195;50.868;4.382;2023-06-10T14:16:17;6.20;;;5.47;;
20069;SDS011;10195;50.868;4.382;2023-06-10T14:18:42;5.85;;;5.00;;
20069;SDS011;10195;50.868;4.382;2023-06-10T14:21:08;10.07;;;5.43;;
20069;SDS011;10195;50.868;4.382;2023-06-10T14:23:34;9.52;;;5.57;;
20069;SDS011;10195;50.868;4.382;2023-06-10T14:26:00;6.82;;;5.60;;
20069;SDS011;10195;50.868;4.382;2023-06-10T14:28:27;6.15;;;5.20;;
20069;SDS011;10195;50.868;4.382;2023-06-10T14:30:53;10.10;;;5.90;;
20069;SDS011;10195;50.868;4.382;2023-06-10T14:33:19;12.40;;;5.72;;
20069;SDS011;10195;50.868;4.382;2023-06-10T14:35:45;5.93;;;5.15;;
20069;SDS011;10195;50.868;4.382;2023-06-10T14:38:11;8.52;;;5.13;;
20069;SDS011;10195;50.868;4.382;2023-06-10T14:40:36;7.03;;;5.30;;
20069;SDS011;10195;50.868;4.382;2023-06-10T14:43:02;7.32;;;4.88;;
20069;SDS011;10195;50.868;4.382;2023-06-10T14:45:34;8.85;;;5.55;;
20069;SDS011;10195;50.868;4.382;2023-06-10T14:48:03;8.07;;;5.80;;
20069;SDS011;10195;50.868;4.382;2023-06-10T14:50:30;11.23;;;5.40;;
20069;SDS011;10195;50.868;4.382;2023-06-10T14:52:55;8.23;;;4.97;;
20069;SDS011;10195;50.868;4.382;2023-06-10T14:55:21;11.38;;;5.63;;
20069;SDS011;10195;50.868;4.382;2023-06-10T14:57:48;6.65;;;5.22;;
20069;SDS011;10195;50.868;4.382;2023-06-10T15:00:14;6.95;;;5.63;;
20069;SDS011;10195;50.868;4.382;2023-06-10T15:02:41;13.25;;;5.40;;
20069;SDS011;10195;50.868;4.382;2023-06-10T15:05:07;9.25;;;5.38;;
20069;SDS011;10195;50.868;4.382;2023-06-10T15:07:33;9.25;;;5.22;;